KCDW/CDW METAR and TAF weather

Enter ICAO airport designator
Station Type Date Time Source
KCDW METAR 2023/02/05 22:53 UTC NOAA

KCDW 052253Z 00000KT 10SM CLR 07/M07 A3002 RMK AO2 SLP173 T00721067


Station Type Date Time Source
KCDW Decoded METAR 2023/02/05 22:53 UTC NOAA

CALDWELL ESSEX COUNTY AIRPORT , NJ, United States (KCDW) 40-53N 074-17W 64M
Feb 05, 2023 - 05:53 PM EST / 2023.02.05 2253 UTC
Wind: Calm:0
Visibility: 10 mile(s):0
Sky conditions: clear
Temperature: 45.0 F (7.2 C)
Dew Point: 19.9 F (-6.7 C)
Relative Humidity: 36%
Pressure (altimeter): 30.02 in. Hg (1016 hPa)
ob: KCDW 052253Z 00000KT 10SM CLR 07/M07 A3002 RMK AO2 SLP173 T00721067
cycle: 23

Station Type Date Time Source
KCDW TAF UTC NOAA

Error!

Example: see airport list